Terminal Aerodrome Forecast
Issued by NWS

Home | Current Version | Previous Version | Graphics & Text | Print | Product List | Glossary On
Versions: 1 2 3 4 5 6 7 8 9 10 11 12
000
FTUS45 KGGW 232321
TAFGDV
TAF
KGDV 232321Z 2400/2424 01014KT P6SM -RA OVC010
     FM240100 01010KT P6SM -RA OVC021
     FM240300 35006KT P6SM VCSH OVC060
     FM240400 33006KT P6SM BKN070=

USA.gov is the U.S. government's official web portal to all federal, state and local government web resources and services.